createdAt,value
2022-08-02T00:00:38.374Z,50.79
2022-08-02T00:03:05.289Z,50.73
2022-08-02T00:05:32.434Z,51.00
2022-08-02T00:07:59.388Z,51.45
2022-08-02T00:10:26.292Z,51.72
2022-08-02T00:12:53.788Z,51.41
2022-08-02T00:15:22.145Z,51.17
2022-08-02T00:17:49.051Z,51.42
2022-08-02T00:20:16.460Z,51.75
2022-08-02T00:22:43.512Z,51.56
2022-08-02T00:25:10.624Z,52.16
2022-08-02T00:27:37.554Z,51.85
2022-08-02T00:30:05.026Z,52.32
2022-08-02T00:32:32.017Z,52.37
2022-08-02T00:34:58.914Z,52.21
2022-08-02T00:37:25.840Z,52.50
2022-08-02T00:39:52.736Z,52.39
2022-08-02T00:42:19.913Z,52.45
2022-08-02T00:44:46.817Z,52.17
2022-08-02T00:47:19.128Z,52.87
2022-08-02T00:49:46.782Z,52.52
2022-08-02T00:52:13.981Z,52.55
2022-08-02T00:54:41.176Z,52.92
2022-08-02T00:57:08.212Z,52.73
2022-08-02T00:59:35.108Z,52.82
2022-08-02T01:02:02.100Z,53.28
2022-08-02T01:04:31.584Z,53.39
2022-08-02T01:07:01.379Z,53.16
2022-08-02T01:09:30.433Z,53.39
2022-08-02T01:11:57.345Z,53.11
2022-08-02T01:14:29.702Z,53.58
2022-08-02T01:17:43.067Z,53.17
2022-08-02T01:20:38.364Z,53.43
2022-08-02T01:23:58.713Z,53.72
2022-08-02T01:26:49.274Z,53.37
2022-08-02T01:29:21.261Z,53.89
2022-08-02T01:32:16.676Z,54.04
2022-08-02T01:34:53.617Z,54.54
2022-08-02T01:37:35.873Z,54.11
2022-08-02T01:40:09.599Z,54.26
2022-08-02T01:42:40.143Z,54.65
2022-08-02T01:45:09.560Z,54.74
2022-08-02T01:47:40.525Z,54.33
2022-08-02T01:50:11.128Z,54.39
2022-08-02T01:52:53.168Z,54.67
2022-08-02T01:55:33.635Z,54.83
2022-08-02T01:58:14.670Z,54.97
2022-08-02T02:00:42.883Z,54.92
2022-08-02T02:03:18.437Z,54.59
2022-08-02T02:05:48.650Z,54.89
2022-08-02T02:08:27.467Z,55.10
2022-08-02T02:10:56.713Z,54.91
2022-08-02T02:13:33.374Z,54.80
2022-08-02T02:16:04.137Z,54.79
2022-08-02T02:18:34.473Z,55.24
2022-08-02T02:21:01.397Z,55.00
2022-08-02T02:23:30.150Z,54.70
2022-08-02T02:26:05.454Z,55.15
2022-08-02T02:28:37.318Z,55.41
2022-08-02T02:31:10.212Z,55.30
2022-08-02T02:33:51.452Z,55.29
2022-08-02T02:36:20.188Z,54.85
2022-08-02T02:38:48.673Z,55.13
2022-08-02T02:41:17.618Z,55.10
2022-08-02T02:43:46.005Z,55.39
2022-08-02T02:46:13.253Z,55.32
2022-08-02T02:48:40.713Z,55.27
2022-08-02T02:51:14.030Z,55.23
2022-08-02T02:54:30.519Z,55.51
2022-08-02T02:56:30.384Z,55.54
2022-08-02T02:58:57.841Z,55.30
2022-08-02T03:01:55.248Z,55.32
2022-08-02T03:04:15.651Z,55.55
2022-08-02T03:06:42.677Z,55.60
2022-08-02T03:09:11.452Z,55.46
2022-08-02T03:11:39.715Z,55.65
2022-08-02T03:14:11.688Z,55.41
2022-08-02T03:16:47.801Z,55.42
2022-08-02T03:19:15.448Z,55.42
2022-08-02T03:21:44.653Z,55.76
2022-08-02T03:24:12.457Z,55.70
2022-08-02T03:26:39.624Z,55.78
2022-08-02T03:29:09.946Z,55.59
2022-08-02T03:31:41.864Z,55.97
2022-08-02T03:34:09.118Z,55.97
2022-08-02T03:36:37.460Z,56.03
2022-08-02T03:39:05.471Z,55.81
2022-08-02T03:41:33.345Z,56.04
2022-08-02T03:44:01.048Z,56.08
2022-08-02T03:46:28.192Z,57.04
2022-08-02T03:48:55.922Z,57.13
2022-08-02T03:51:23.442Z,57.08
2022-08-02T03:53:50.872Z,56.86
2022-08-02T03:56:18.321Z,56.79
2022-08-02T03:58:49.042Z,56.51
2022-08-02T04:01:16.514Z,56.79
2022-08-02T04:03:43.685Z,56.63
2022-08-02T04:06:10.643Z,56.39
2022-08-02T04:08:38.856Z,56.34
2022-08-02T04:11:25.129Z,56.47
2022-08-02T04:13:54.719Z,56.91
2022-08-02T04:16:34.952Z,56.85
2022-08-02T04:19:04.168Z,56.75
2022-08-02T04:21:50.275Z,56.62
2022-08-02T04:24:24.534Z,56.67
2022-08-02T04:26:57.960Z,56.55
2022-08-02T04:29:30.595Z,56.94
2022-08-02T04:31:57.669Z,57.16
2022-08-02T04:34:24.722Z,56.68
2022-08-02T04:36:52.073Z,56.70
2022-08-02T04:39:19.623Z,57.40
2022-08-02T04:41:47.966Z,57.42
2022-08-02T04:44:15.137Z,57.27
2022-08-02T04:46:44.621Z,57.44
2022-08-02T04:49:12.110Z,56.98
2022-08-02T04:51:42.218Z,56.99
2022-08-02T04:54:11.458Z,57.66
2022-08-02T04:56:39.437Z,57.24
2022-08-02T04:59:07.296Z,56.89
2022-08-02T05:01:35.663Z,57.26
2022-08-02T05:04:03.322Z,57.08
2022-08-02T05:06:30.326Z,56.97
2022-08-02T05:08:57.351Z,57.42
2022-08-02T05:11:34.198Z,57.20
2022-08-02T05:14:02.123Z,57.04
2022-08-02T05:16:31.050Z,56.78
2022-08-02T05:19:03.296Z,56.99
2022-08-02T05:21:31.788Z,56.76
2022-08-02T05:23:59.028Z,57.08
2022-08-02T05:26:25.956Z,56.80
2022-08-02T05:28:52.876Z,56.41
2022-08-02T05:31:20.212Z,56.42
2022-08-02T05:33:47.375Z,56.44
2022-08-02T05:36:14.258Z,56.34
2022-08-02T05:38:42.775Z,56.70
2022-08-02T05:41:19.129Z,56.31
2022-08-02T05:43:47.052Z,56.58
2022-08-02T05:46:14.225Z,56.14
2022-08-02T05:48:41.177Z,55.95
2022-08-02T05:51:19.953Z,55.74
2022-08-02T05:53:59.309Z,55.95
2022-08-02T05:56:47.651Z,55.85
2022-08-02T05:59:48.614Z,55.75
2022-08-02T06:02:30.745Z,55.64
2022-08-02T06:05:16.809Z,55.47
2022-08-02T06:07:45.502Z,55.38
2022-08-02T06:10:14.546Z,55.07
2022-08-02T06:13:14.655Z,54.89
2022-08-02T06:15:53.480Z,54.75
2022-08-02T06:18:28.462Z,54.76
2022-08-02T06:22:32.444Z,54.36
2022-08-02T06:23:57.539Z,54.16
2022-08-02T06:26:27.184Z,53.17
2022-08-02T06:28:57.031Z,52.95
2022-08-02T06:31:24.290Z,52.80
2022-08-02T06:33:51.210Z,52.98
2022-08-02T06:36:46.293Z,52.56
2022-08-02T06:39:44.741Z,52.37
2022-08-02T06:42:16.477Z,52.53
2022-08-02T06:44:57.747Z,52.23
2022-08-02T06:47:25.803Z,51.99
2022-08-02T06:49:54.397Z,52.15
2022-08-02T06:52:31.607Z,52.25
2022-08-02T06:55:00.440Z,52.50
2022-08-02T06:57:28.656Z,52.53
2022-08-02T06:59:55.589Z,52.20
2022-08-02T07:02:22.850Z,52.30
2022-08-02T07:04:50.067Z,51.58
2022-08-02T07:07:17.076Z,51.43
2022-08-02T07:09:56.764Z,51.13
2022-08-02T07:12:32.579Z,51.09
2022-08-02T07:15:02.191Z,51.19
2022-08-02T07:17:30.067Z,51.32
2022-08-02T07:19:57.907Z,50.91
2022-08-02T07:22:26.886Z,50.52
2022-08-02T07:24:56.229Z,50.16
2022-08-02T07:27:23.858Z,50.19
2022-08-02T07:29:51.022Z,49.91
2022-08-02T07:32:20.455Z,49.89
2022-08-02T07:34:51.393Z,48.89
2022-08-02T07:37:35.359Z,48.43
2022-08-02T07:40:20.097Z,48.58
2022-08-02T07:42:52.229Z,48.38
2022-08-02T07:45:20.825Z,47.91
2022-08-02T07:47:47.845Z,47.38
2022-08-02T07:50:16.851Z,45.52
2022-08-02T07:52:45.264Z,44.09
2022-08-02T07:55:14.313Z,44.40
2022-08-02T07:57:46.195Z,44.05
2022-08-02T08:00:16.249Z,44.21
2022-08-02T08:02:44.224Z,44.43
2022-08-02T08:05:12.011Z,43.79
2022-08-02T08:07:39.496Z,41.82
2022-08-02T08:10:07.948Z,42.34
2022-08-02T08:12:34.859Z,42.89
2022-08-02T08:15:01.944Z,42.47
2022-08-02T08:17:28.924Z,42.42
2022-08-02T08:19:55.909Z,41.69
2022-08-02T08:22:23.051Z,41.89
2022-08-02T08:24:50.367Z,41.62
2022-08-02T08:27:22.471Z,41.40
2022-08-02T08:29:49.926Z,42.22
2022-08-02T08:32:17.879Z,41.54
2022-08-02T08:34:49.544Z,41.51
2022-08-02T08:37:18.045Z,40.81
2022-08-02T08:39:57.979Z,40.73
2022-08-02T08:42:27.192Z,41.52
2022-08-02T08:44:56.617Z,40.75
2022-08-02T08:47:42.796Z,40.04
2022-08-02T08:50:24.773Z,40.04
2022-08-02T08:53:03.339Z,40.32
2022-08-02T08:55:31.192Z,39.65
2022-08-02T08:58:00.563Z,38.64
2022-08-02T09:00:28.215Z,38.89
2022-08-02T09:02:55.142Z,39.07
2022-08-02T09:05:22.174Z,39.59
2022-08-02T09:07:53.551Z,38.88
2022-08-02T09:10:47.215Z,39.02
2022-08-02T09:13:38.085Z,38.26
2022-08-02T09:16:14.472Z,37.83
2022-08-02T09:18:47.309Z,37.52
2022-08-02T09:21:16.605Z,37.60
2022-08-02T09:23:49.870Z,37.02
2022-08-02T09:26:23.695Z,37.14
2022-08-02T09:28:53.242Z,37.30
2022-08-02T09:31:24.408Z,36.88
2022-08-02T09:33:57.121Z,37.00
2022-08-02T09:36:25.613Z,36.75
2022-08-02T09:38:57.280Z,36.48
2022-08-02T09:41:28.098Z,35.78
2022-08-02T09:44:05.451Z,35.58
2022-08-02T09:46:39.757Z,35.66
2022-08-02T09:49:10.284Z,36.50
2022-08-02T09:51:47.691Z,36.84
2022-08-02T09:54:20.907Z,36.54
2022-08-02T09:57:01.995Z,36.31
2022-08-02T09:59:29.733Z,37.23
2022-08-02T10:02:02.205Z,36.98
2022-08-02T10:04:34.252Z,36.68
2022-08-02T10:07:04.366Z,37.34
2022-08-02T10:09:32.458Z,36.70
2022-08-02T10:12:01.108Z,36.22
2022-08-02T10:14:28.547Z,36.77
2022-08-02T10:16:57.741Z,36.67
2022-08-02T10:20:00.340Z,36.44
2022-08-02T10:22:15.655Z,35.41
2022-08-02T10:24:48.146Z,35.39
2022-08-02T10:27:22.567Z,34.60
2022-08-02T10:29:54.763Z,34.88
2022-08-02T10:32:33.544Z,35.38
2022-08-02T10:35:20.043Z,35.82
2022-08-02T10:37:58.625Z,36.26
2022-08-02T10:40:28.569Z,35.74
2022-08-02T10:43:01.199Z,35.72
2022-08-02T10:45:28.838Z,36.27
2022-08-02T10:48:14.477Z,35.78
2022-08-02T10:50:47.923Z,36.33
2022-08-02T10:53:32.159Z,36.35
2022-08-02T10:56:03.047Z,36.14
2022-08-02T10:58:32.589Z,35.74
2022-08-02T11:01:38.953Z,36.39
2022-08-02T11:04:10.462Z,35.68
2022-08-02T11:07:11.470Z,36.32
2022-08-02T11:09:38.480Z,35.42
2022-08-02T11:12:15.126Z,35.55
2022-08-02T11:15:00.879Z,35.83
2022-08-02T11:17:40.989Z,34.93
2022-08-02T11:20:11.226Z,33.63
2022-08-02T11:22:40.189Z,33.73
2022-08-02T11:25:22.335Z,33.86
2022-08-02T11:27:50.893Z,33.42
2022-08-02T11:30:27.274Z,33.08
2022-08-02T11:32:59.040Z,32.52
2022-08-02T11:35:34.491Z,31.63
2022-08-02T11:38:14.513Z,31.05
2022-08-02T11:40:43.993Z,30.34
2022-08-02T11:43:24.005Z,30.58
2022-08-02T11:45:52.449Z,30.19
2022-08-02T11:48:38.839Z,30.36
2022-08-02T11:51:17.260Z,29.96
2022-08-02T11:53:53.686Z,30.30
2022-08-02T11:56:32.825Z,29.81
2022-08-02T11:59:10.426Z,28.96
2022-08-02T12:01:45.647Z,29.07
2022-08-02T12:04:19.410Z,29.29
2022-08-02T12:07:01.054Z,28.81
2022-08-02T12:09:30.461Z,29.17
2022-08-02T12:11:59.017Z,28.92
2022-08-02T12:14:28.038Z,28.28
2022-08-02T12:17:14.465Z,27.27
2022-08-02T12:19:42.622Z,27.80
2022-08-02T12:22:27.335Z,27.58
2022-08-02T12:24:57.167Z,27.00
2022-08-02T12:27:40.492Z,25.88
2022-08-02T12:30:10.538Z,25.14
2022-08-02T12:32:38.358Z,24.77
2022-08-02T12:35:14.767Z,24.66
2022-08-02T12:37:54.076Z,25.69
2022-08-02T12:40:25.681Z,25.63
2022-08-02T12:42:57.055Z,26.04
2022-08-02T12:45:25.499Z,26.33
2022-08-02T12:47:55.514Z,25.75
2022-08-02T12:50:37.347Z,25.79
2022-08-02T12:53:09.766Z,24.95
2022-08-02T12:56:01.905Z,25.18
2022-08-02T12:58:31.826Z,25.44
2022-08-02T13:01:01.038Z,25.19
2022-08-02T13:04:09.362Z,25.13
2022-08-02T13:06:42.059Z,25.44
2022-08-02T13:09:15.993Z,25.87
2022-08-02T13:11:44.178Z,25.58
2022-08-02T13:14:13.388Z,25.78
2022-08-02T13:16:43.490Z,25.81
2022-08-02T13:19:10.459Z,25.95
2022-08-02T13:21:41.371Z,25.78
2022-08-02T13:24:38.767Z,26.35
2022-08-02T13:27:11.722Z,26.11
2022-08-02T13:29:38.649Z,25.82
2022-08-02T13:32:06.330Z,25.78
2022-08-02T13:34:33.338Z,25.31
2022-08-02T13:37:00.225Z,25.87
2022-08-02T13:39:27.104Z,25.97
2022-08-02T13:41:54.074Z,25.88
2022-08-02T13:44:21.352Z,26.00
2022-08-02T13:46:48.401Z,26.42
2022-08-02T13:49:19.353Z,26.11
2022-08-02T13:51:47.977Z,25.60
2022-08-02T13:54:15.864Z,24.90
2022-08-02T13:56:43.178Z,25.58
2022-08-02T13:59:54.304Z,25.82
2022-08-02T14:01:58.534Z,25.97
2022-08-02T14:04:25.972Z,25.79
2022-08-02T14:06:52.883Z,25.78
2022-08-02T14:09:19.808Z,25.90
2022-08-02T14:11:48.380Z,25.97
2022-08-02T14:14:17.246Z,25.84
2022-08-02T14:16:45.532Z,25.46
2022-08-02T14:19:16.306Z,25.24
2022-08-02T14:21:48.569Z,25.82
2022-08-02T14:24:21.150Z,25.52
2022-08-02T14:26:48.949Z,25.48
2022-08-02T14:29:16.684Z,25.72
2022-08-02T14:31:45.116Z,25.93
2022-08-02T14:34:13.625Z,26.12
2022-08-02T14:36:40.822Z,25.94
2022-08-02T14:39:07.852Z,26.06
2022-08-02T14:42:00.078Z,26.07
2022-08-02T14:44:23.796Z,25.66
2022-08-02T14:46:51.956Z,25.90
2022-08-02T14:49:25.318Z,25.67
2022-08-02T14:51:56.685Z,25.40
2022-08-02T14:54:30.958Z,25.62
2022-08-02T14:57:04.038Z,25.04
2022-08-02T14:59:31.175Z,25.38
2022-08-02T15:01:59.416Z,25.46
2022-08-02T15:04:26.468Z,25.37
2022-08-02T15:06:54.661Z,25.77
2022-08-02T15:09:22.404Z,25.69
2022-08-02T15:11:49.837Z,25.41
2022-08-02T15:14:21.725Z,25.16
2022-08-02T15:16:58.000Z,25.48
2022-08-02T15:19:56.156Z,25.29
2022-08-02T15:22:19.349Z,25.96
2022-08-02T15:24:47.805Z,25.59
2022-08-02T15:27:15.515Z,25.95
2022-08-02T15:29:44.390Z,26.27
2022-08-02T15:32:11.971Z,25.61
2022-08-02T15:34:39.766Z,25.78
2022-08-02T15:37:06.781Z,26.16
2022-08-02T15:39:33.672Z,25.82
2022-08-02T15:42:00.589Z,25.82
2022-08-02T15:44:27.553Z,25.97
2022-08-02T15:46:54.622Z,26.36
2022-08-02T15:49:23.674Z,26.47
2022-08-02T15:51:52.196Z,25.45
2022-08-02T15:54:19.528Z,25.76
2022-08-02T15:56:46.510Z,26.10
2022-08-02T15:59:13.434Z,25.79
2022-08-02T16:01:44.898Z,26.36
2022-08-02T16:04:15.951Z,26.58
2022-08-02T16:06:43.743Z,26.36
2022-08-02T16:09:10.854Z,26.81
2022-08-02T16:11:38.167Z,26.29
2022-08-02T16:14:05.097Z,26.54
2022-08-02T16:16:35.191Z,26.65
2022-08-02T16:19:46.899Z,26.34
2022-08-02T16:21:53.431Z,26.74
2022-08-02T16:24:20.373Z,26.98
2022-08-02T16:26:47.609Z,26.80
2022-08-02T16:29:19.290Z,26.88
2022-08-02T16:31:47.942Z,26.71
2022-08-02T16:34:16.557Z,27.43
2022-08-02T16:36:43.850Z,27.16
2022-08-02T16:39:10.811Z,27.19
2022-08-02T16:41:50.463Z,27.00
2022-08-02T16:44:18.371Z,27.30
2022-08-02T16:47:01.018Z,27.70
2022-08-02T16:50:06.613Z,27.56
2022-08-02T16:52:18.897Z,27.43
2022-08-02T16:54:49.468Z,27.86
2022-08-02T16:57:19.701Z,27.70
2022-08-02T16:59:57.484Z,27.93
2022-08-02T17:02:28.566Z,27.43
2022-08-02T17:04:56.740Z,28.21
2022-08-02T17:08:15.198Z,27.60
2022-08-02T17:10:11.015Z,28.02
2022-08-02T17:12:39.370Z,27.94
2022-08-02T17:16:01.190Z,27.82
2022-08-02T17:17:55.091Z,27.78
2022-08-02T17:20:22.029Z,28.01
2022-08-02T17:22:51.982Z,28.36
2022-08-02T17:25:20.055Z,28.28
2022-08-02T17:27:47.397Z,28.29
2022-08-02T17:30:26.882Z,28.62
2022-08-02T17:32:57.904Z,28.68
2022-08-02T17:35:39.996Z,28.39
2022-08-02T17:38:17.679Z,28.30
2022-08-02T17:40:45.168Z,28.54
2022-08-02T17:43:14.740Z,28.78
2022-08-02T17:46:00.580Z,28.49
2022-08-02T17:48:55.027Z,28.79
2022-08-02T17:52:15.690Z,28.50
2022-08-02T17:54:10.811Z,28.70
2022-08-02T17:56:38.124Z,28.86
2022-08-02T17:59:20.430Z,28.94
2022-08-02T18:01:54.407Z,28.86
2022-08-02T18:04:26.904Z,28.87
2022-08-02T18:07:04.464Z,29.31
2022-08-02T18:09:36.517Z,29.03
2022-08-02T18:12:03.756Z,28.98
2022-08-02T18:14:30.706Z,29.19
2022-08-02T18:16:57.700Z,29.51
2022-08-02T18:22:11.893Z,29.54
2022-08-02T18:24:40.560Z,29.78
2022-08-02T18:27:07.695Z,29.63
2022-08-02T18:29:38.574Z,30.06
2022-08-02T18:32:06.095Z,30.03
2022-08-02T18:34:39.213Z,30.32
2022-08-02T18:37:07.110Z,31.25
2022-08-02T18:39:38.442Z,32.23
2022-08-02T18:42:05.647Z,31.96
2022-08-02T18:44:32.544Z,32.28
2022-08-02T18:47:00.561Z,32.59
2022-08-02T18:49:46.196Z,32.77
2022-08-02T18:52:14.469Z,33.04
2022-08-02T18:54:41.653Z,32.94
2022-08-02T18:58:02.201Z,33.02
2022-08-02T18:59:56.375Z,33.34
2022-08-02T19:02:24.943Z,33.48
2022-08-02T19:04:55.007Z,34.11
2022-08-02T19:07:22.492Z,33.86
2022-08-02T19:09:49.649Z,33.94
2022-08-02T19:12:28.035Z,34.58
2022-08-02T19:14:56.101Z,34.53
2022-08-02T19:17:55.376Z,35.04
2022-08-02T19:20:11.195Z,35.01
2022-08-02T19:22:46.708Z,34.90
2022-08-02T19:25:21.133Z,34.75
2022-08-02T19:27:55.389Z,34.88
2022-08-02T19:30:22.459Z,34.89
2022-08-02T19:32:59.762Z,35.32
2022-08-02T19:35:34.184Z,35.49
2022-08-02T19:38:09.554Z,35.48
2022-08-02T19:40:38.598Z,35.66
2022-08-02T19:44:27.557Z,35.73
2022-08-02T19:45:57.063Z,35.96
2022-08-02T19:48:27.200Z,36.55
2022-08-02T19:51:12.917Z,36.98
2022-08-02T19:53:46.619Z,36.55
2022-08-02T19:56:24.689Z,36.82
2022-08-02T19:58:54.746Z,36.81
2022-08-02T20:01:28.430Z,37.22
2022-08-02T20:04:13.351Z,36.67
2022-08-02T20:09:33.539Z,36.96
2022-08-02T20:12:14.158Z,37.45
2022-08-02T20:14:51.136Z,37.21
2022-08-02T20:17:20.735Z,37.19
2022-08-02T20:19:47.983Z,36.91
2022-08-02T20:22:16.178Z,37.01
2022-08-02T20:24:43.463Z,37.58
2022-08-02T20:27:17.017Z,37.13
2022-08-02T20:30:00.773Z,37.16
2022-08-02T20:32:27.688Z,37.93
2022-08-02T20:34:55.365Z,37.91
2022-08-02T20:37:56.056Z,37.77
2022-08-02T20:40:10.444Z,37.16
2022-08-02T20:42:44.041Z,37.06
2022-08-02T20:45:14.583Z,37.93
2022-08-02T20:47:42.507Z,37.48
2022-08-02T20:50:32.182Z,37.58
2022-08-02T20:53:04.155Z,37.41
2022-08-02T20:55:32.058Z,37.95
2022-08-02T20:58:02.992Z,37.81
2022-08-02T21:00:31.683Z,37.35
2022-08-02T21:03:04.434Z,37.17
2022-08-02T21:08:21.247Z,37.37
2022-08-02T21:10:50.316Z,37.98
2022-08-02T21:13:18.882Z,38.08
2022-08-02T21:15:50.165Z,38.18
2022-08-02T21:18:28.735Z,38.41
2022-08-02T21:21:04.133Z,37.94
2022-08-02T21:23:36.520Z,38.25
2022-08-02T21:26:19.742Z,38.88
2022-08-02T21:28:52.813Z,38.53
2022-08-02T21:31:19.732Z,38.50
2022-08-02T21:33:58.539Z,38.77
2022-08-02T21:36:33.705Z,39.15
2022-08-02T21:39:09.202Z,38.77
2022-08-02T21:41:46.504Z,38.88
2022-08-02T21:44:20.596Z,39.56
2022-08-02T21:46:50.804Z,39.51
2022-08-02T21:49:20.756Z,39.43
2022-08-02T21:51:54.564Z,39.03
2022-08-02T21:54:22.056Z,39.18
2022-08-02T21:56:51.977Z,39.13
2022-08-02T21:59:25.745Z,39.29
2022-08-02T22:01:56.851Z,39.68
2022-08-02T22:04:27.737Z,39.59
2022-08-02T22:06:55.618Z,39.31
2022-08-02T22:09:42.065Z,39.30
2022-08-02T22:12:16.918Z,39.26
2022-08-02T22:14:54.950Z,39.18
2022-08-02T22:17:51.963Z,39.48
2022-08-02T22:20:19.686Z,39.32
2022-08-02T22:22:50.595Z,39.19
2022-08-02T22:28:35.818Z,39.52
2022-08-02T22:30:57.219Z,39.54
2022-08-02T22:33:47.396Z,39.33
2022-08-02T22:36:30.386Z,39.84
2022-08-02T22:38:57.931Z,39.65
2022-08-02T22:41:24.836Z,39.80
2022-08-02T22:43:51.753Z,39.63
2022-08-02T22:46:18.932Z,39.43
2022-08-02T22:48:53.636Z,40.08
2022-08-02T22:51:21.283Z,40.05
2022-08-02T22:53:48.191Z,40.02
2022-08-02T22:56:15.945Z,39.84
2022-08-02T22:58:54.483Z,36.94
2022-08-02T22:58:58.666Z,29.57
2022-08-02T22:59:04.824Z,39.48
2022-08-02T22:59:11.980Z,37.60
2022-08-02T23:01:30.254Z,39.66
2022-08-02T23:03:57.248Z,40.07
2022-08-02T23:06:24.156Z,39.84
2022-08-02T23:08:51.105Z,39.95
2022-08-02T23:11:18.103Z,40.42
2022-08-02T23:13:45.073Z,40.07
2022-08-02T23:16:30.722Z,40.69
2022-08-02T23:19:16.239Z,40.78
2022-08-02T23:22:00.739Z,40.68
2022-08-02T23:24:32.902Z,40.94
2022-08-02T23:26:59.854Z,41.40
2022-08-02T23:29:26.835Z,41.47
2022-08-02T23:31:53.735Z,41.69
2022-08-02T23:34:21.872Z,41.53
2022-08-02T23:36:48.804Z,41.61
2022-08-02T23:39:15.725Z,41.29
2022-08-02T23:41:42.674Z,41.85
2022-08-02T23:44:14.503Z,41.36
2022-08-02T23:46:46.692Z,41.72
2022-08-02T23:49:15.726Z,41.79
2022-08-02T23:51:43.183Z,41.83
2022-08-02T23:54:11.298Z,41.66
2022-08-02T23:56:39.141Z,41.67
2022-08-02T23:59:09.844Z,41.30
